createdAt,value
2022-10-17T01:11:47.067Z,11.00
2022-10-17T01:14:24.978Z,10.90
2022-10-17T01:16:58.576Z,10.70
2022-10-17T01:23:33.422Z,10.60
2022-10-17T01:26:12.017Z,10.80
2022-10-17T01:29:15.915Z,10.60
2022-10-17T01:31:57.694Z,10.70
2022-10-17T01:34:36.514Z,10.70
2022-10-17T01:37:11.693Z,10.60
2022-10-17T01:39:47.801Z,10.60
2022-10-17T01:42:20.878Z,10.70
2022-10-17T01:44:57.709Z,10.60
2022-10-17T08:35:54.792Z,11.30
2022-10-17T08:38:27.783Z,11.30
2022-10-17T08:40:59.130Z,11.40
2022-10-17T08:43:43.494Z,11.50
2022-10-17T08:53:53.522Z,11.90
2022-10-17T08:56:37.028Z,11.80
2022-10-17T08:59:15.824Z,11.80
2022-10-17T09:01:51.036Z,11.90
2022-10-17T09:04:51.617Z,12.10
2022-10-17T09:10:02.188Z,12.00
2022-10-17T09:12:37.550Z,12.30
2022-10-17T09:15:25.267Z,12.20
2022-10-17T09:17:57.331Z,12.40
2022-10-17T09:20:29.234Z,12.40
2022-10-17T09:23:02.439Z,12.60
2022-10-17T09:25:36.614Z,12.60
2022-10-17T09:28:13.787Z,12.60
2022-10-17T09:30:46.370Z,12.70
2022-10-17T09:49:33.931Z,13.10
2022-10-17T09:52:04.141Z,13.20
2022-10-17T09:54:42.782Z,13.10
2022-10-17T09:57:14.076Z,13.20
2022-10-17T09:59:45.512Z,13.20
2022-10-17T10:02:21.065Z,13.20
2022-10-17T10:05:05.884Z,13.20
2022-10-17T10:07:37.938Z,13.30
2022-10-17T10:10:09.890Z,13.30
2022-10-17T10:12:41.042Z,13.40
2022-10-17T10:15:35.232Z,13.40
2022-10-17T10:18:04.287Z,13.50
2022-10-17T10:20:36.039Z,13.50
2022-10-17T10:23:17.458Z,13.50
2022-10-17T10:25:55.898Z,13.60
2022-10-17T10:36:03.529Z,13.90
2022-10-17T10:41:07.558Z,14.40
2022-10-17T10:43:39.439Z,14.20
2022-10-17T10:46:19.500Z,14.10
2022-10-17T10:48:54.493Z,14.10
2022-10-17T10:51:29.469Z,14.10
2022-10-17T10:54:05.097Z,14.10
2022-10-17T10:56:39.828Z,14.10
2022-10-17T10:59:18.957Z,14.20
2022-10-17T11:01:53.414Z,14.20
2022-10-17T11:12:09.234Z,14.30
2022-10-17T11:14:45.523Z,14.30
2022-10-17T11:17:22.667Z,14.40
2022-10-17T11:20:00.360Z,14.40
2022-10-17T11:22:32.689Z,14.30
2022-10-17T11:25:06.329Z,14.40
2022-10-17T11:27:36.102Z,14.40
2022-10-17T11:30:07.728Z,14.40
2022-10-17T11:32:41.305Z,14.40
2022-10-17T11:35:21.259Z,14.40
2022-10-17T11:37:56.568Z,14.40
2022-10-17T11:40:31.871Z,14.40
2022-10-17T11:43:03.187Z,14.40
2022-10-17T11:45:40.530Z,14.50
2022-10-17T11:48:18.551Z,14.50
2022-10-17T11:53:50.857Z,14.50
2022-10-17T11:56:24.364Z,14.50
2022-10-17T11:59:00.133Z,14.50
2022-10-17T12:01:36.716Z,14.50
2022-10-17T12:04:28.686Z,14.50
2022-10-17T12:07:10.999Z,14.50
2022-10-17T12:09:46.219Z,14.50
2022-10-17T12:12:27.533Z,14.50
2022-10-17T12:15:17.380Z,14.60
2022-10-17T12:17:48.468Z,14.50
2022-10-17T12:20:30.618Z,14.50
2022-10-17T12:23:16.324Z,14.50
2022-10-17T12:25:51.326Z,14.50
2022-10-17T12:28:27.295Z,14.50
2022-10-17T12:31:01.869Z,14.50
2022-10-17T12:33:36.043Z,14.50
2022-10-17T12:36:48.117Z,14.50
2022-10-17T12:39:50.637Z,14.50
2022-10-17T12:42:33.874Z,14.50
2022-10-17T12:45:02.589Z,14.50
2022-10-17T12:47:40.258Z,14.50
2022-10-17T12:50:42.641Z,14.50
2022-10-17T12:53:19.829Z,14.50
2022-10-17T12:55:51.954Z,14.40
2022-10-17T12:58:20.665Z,14.40
2022-10-17T13:01:12.085Z,14.50
2022-10-17T13:03:46.369Z,14.40
2022-10-17T13:06:21.901Z,14.40
2022-10-17T13:09:03.312Z,14.30
2022-10-17T13:11:35.305Z,14.40
2022-10-17T13:14:11.875Z,14.30
2022-10-17T13:16:42.936Z,14.40
2022-10-17T13:19:16.495Z,14.40
2022-10-17T13:21:51.955Z,14.30
2022-10-17T13:24:31.002Z,14.30
2022-10-17T13:27:00.276Z,14.30
2022-10-17T13:29:30.972Z,14.30
2022-10-17T13:32:02.609Z,14.30
2022-10-17T13:34:33.742Z,14.20
2022-10-17T13:37:04.568Z,14.20
2022-10-17T13:39:58.022Z,14.20
2022-10-17T13:42:32.364Z,14.20
2022-10-17T13:45:01.648Z,14.20
2022-10-17T13:47:36.552Z,14.20
2022-10-17T13:50:26.336Z,14.20
2022-10-17T13:53:26.699Z,14.10
2022-10-17T13:56:22.931Z,14.10
2022-10-17T13:58:49.895Z,14.00
2022-10-17T14:01:19.596Z,14.00
2022-10-17T14:03:57.063Z,13.90
2022-10-17T14:06:32.402Z,13.90
2022-10-17T14:09:03.916Z,13.70
2022-10-17T14:11:37.398Z,13.70
2022-10-17T14:14:08.898Z,13.60
2022-10-17T14:16:41.302Z,13.70
2022-10-17T14:19:24.822Z,13.50
2022-10-17T14:21:57.043Z,13.40
2022-10-17T14:24:31.701Z,13.30
2022-10-17T14:45:44.117Z,12.60
2022-10-17T14:48:16.256Z,12.60
2022-10-17T15:08:54.589Z,12.10
2022-10-17T15:11:23.387Z,11.90
2022-10-17T15:13:53.135Z,11.80
2022-10-17T15:16:28.651Z,11.50
